x

Buoy F01 - West Penobscot Bay (44033) Wave Buoy

12:04pm - Sun 3rd May 2015 All times are EDT. -4 hours from GMT.

  • Sig Wave height 0.7ft
  • Wind
    13mph, 16mph gusts
  • Sea Temp 42°f
  • 空気 Temp 41°f
  • Sea Pressure 1017.3mb
  • Buoy F01 - West Penobscot Bay
  • Buoy F01 - West Penobscot Bay

More Historic Weather Station data

Upgrade to MSW Pro to gain access to the past 30 days of data for over 8000 Wavebouys and Weather Stations around the globe.

Join Pro

Comparision Forecast

View Surf forecast
   
Sun 05/03 12:04pm 0.7ft  -  13 16 mph 1017.3mb 42f 41f
11:04am 1.3ft 6s 13
mph
1017.4mb 42f 40f
10:04am 1.3ft 6s 9 11 mph 1017.3mb 41f 40f
9:04am 1.3ft 8s 9 11 mph 1017.5mb 42f 40f
8:04am 1.3ft 6s 11
mph
1017.4mb 42f 39f
7:04am 1.3ft 8s 9 11 mph 1017mb 41f 38f
6:04am 1ft 3s 9 13 mph 1016.2mb 41f 38f
5:04am 1.3ft 8s 13 16 mph 1015.4mb 42f 39f
4:04am 1.3ft 8s 9 11 mph 1015.1mb 42f 40f
3:04am 1.3ft 8s 7 9 mph 1015mb 42f 41f
2:04am 1ft 11s 7 9 mph 1015.2mb 41f 41f
1:04am 1ft 8s 7 9 mph 1015.3mb 42f 40f
12:04am 1.3ft 11s 7 9 mph 1015.2mb 42f 39f
Sat 05/02 11:04pm 1ft 6s 9 11 mph 1015.3mb 42f 39f
10:04pm 1ft 8s 11 13 mph 1015.3mb 42f 39f
9:04pm 1ft 11s 9 11 mph 1014.8mb 42f 41f
8:04pm 1ft 6s 11
mph
1014.5mb 43f 41f
7:04pm 1ft 6s 11 13 mph 1014.3mb 43f 41f
6:04pm 1.3ft 6s 11 13 mph 1014mb 43f 40f
5:04pm 1.3ft 6s 13
mph
1014mb 43f 40f
4:04pm 1.3ft 8s 13 18 mph 1013.9mb 44f 39f
3:04pm 1ft 8s 11 13 mph 1014.3mb 44f 39f
2:04pm 1ft 8s 9 11 mph 1014.8mb 43f 39f
1:04pm 1ft 8s 9 11 mph 1015mb 43f 39f
12:04pm 1ft 8s 9 11 mph 1015.1mb 43f 39f
11:04am 1ft 6s 7 9 mph 1015.4mb 41f 38f
10:04am 1ft 6s 4 7 mph 1015.6mb 42f 39f
9:04am 1ft 6s 2 4 mph 1015.6mb 42f 39f
8:04am 1ft 8s 4 7 mph 1015.7mb 41f 38f
7:04am 1.3ft 6s 4 7 mph 1015.7mb 41f 38f
6:04am 1ft 6s 7
mph
1015.5mb 41f 38f
5:04am 1ft 8s 7 9 mph 1015.2mb 42f 38f
4:04am 1ft 6s 4
mph
1015mb 42f 39f
3:04am 1ft 8s 2
mph
1015.2mb 42f 39f
2:04am 1ft 8s  -  mph 1015.1mb 42f 39f
1:04am 0.7ft  -  2
mph
1015.2mb 41f 39f
12:04am 1ft 8s 2 4 mph 1015.3mb 41f 40f
Fri 05/01 11:04pm 0.7ft  -  2 4 mph 1015.3mb 41f 40f
10:04pm 0.7ft  -  4
mph
1015.3mb 41f 40f
9:04pm 0.7ft  -  7
mph
1015.2mb 41f 40f
8:04pm 1ft 8s 7 9 mph 1014.7mb 42f 40f
7:04pm 0.7ft  -  7 9 mph 1014.5mb 42f 40f
6:04pm 1ft 3s 7 9 mph 1014.5mb 43f 41f
5:04pm 1.3ft 8s 7 9 mph 1014.6mb 42f 41f
4:04pm 1ft 3s 9
mph
1014.8mb 41f 40f
3:04pm 1.3ft 4s 9 11 mph 1014.9mb 41f 39f
2:04pm 1.3ft 3s 13 16 mph 1014.8mb 41f 39f
1:04pm 1ft 3s 16 18 mph 1014.5mb 41f 39f
12:04pm 1ft 6s 13 16 mph 1014.7mb 41f 39f
11:04am 1ft 8s 9
mph
1015.2mb 40f 42f
10:04am 1ft 3s 7 9 mph 1015.4mb 40f 40f
9:04am 1.3ft 3s 13 16 mph 1015.3mb 40f 40f
8:04am 1.6ft 3s 16 18 mph 1015.2mb 40f 39f
7:04am 1.3ft 6s 13 18 mph 1014.9mb 40f 40f
6:04am 1.6ft 6s 13 16 mph 1014.6mb 40f 40f
5:04am 1ft 3s 11 13 mph 1014.4mb 40f 40f
4:04am 1.3ft 2s 13 16 mph 1014.5mb 40f 41f
3:04am 1.6ft 8s 11 13 mph 1014.2mb 40f 42f
2:04am 1.3ft 8s 11 13 mph 1014mb 41f 42f
1:04am 1.3ft 8s 7 9 mph 1014.3mb 41f 42f
12:04am 1ft 8s 4
mph
1014.3mb 41f 42f
Thu 04/30 11:04pm 1ft 11s 2
mph
1014mb 41f 43f
10:04pm 1ft 8s 2 4 mph 1013.7mb 41f 42f
9:04pm 1ft 11s 4
mph
1013.2mb 40f 42f
8:04pm 1ft 11s 4
mph
1012.4mb 40f 42f
6:04pm 1ft 11s 4 7 mph 1011.1mb 41f 42f
5:04pm 1ft 6s 9 11 mph 1010.7mb 41f 42f
4:04pm 1ft 11s 11 13 mph 1010.3mb 40f 43f
3:04pm 1ft 8s 9
mph
1010.1mb 40f 45f
2:04pm 1ft 8s 9 11 mph 1009.9mb 41f 45f
1:04pm 1ft 8s 13 16 mph 1009.6mb 41f 46f
12:04pm 1.3ft 8s 11 13 mph 1009.2mb 41f 44f
11:04am  -   -  9 11 mph 1009mb 40f 44f
10:04am 1.3ft 11s 9
mph
1008.8mb 40f 43f
9:04am 1ft 11s 9
mph
1008.7mb 40f 43f
8:04am 1.3ft 11s 9 13 mph 1008.6mb 40f 43f
7:04am 1.3ft 11s 13 16 mph 1008.5mb 40f 44f
6:04am 1.3ft 11s 11 13 mph 1007.9mb 40f 44f
5:04am 1ft 11s 9
mph
1007.7mb 40f 44f
4:04am 1ft 11s 7
mph
1007.7mb 40f 43f
3:04am 1ft 8s 4 7 mph 1007.8mb 40f 42f
2:04am 0.7ft  -  4 7 mph 1007.9mb 40f 42f
1:04am 0.7ft  -  4 7 mph 1008.3mb 40f 42f
12:04am 0.7ft  -  16 18 mph 1008.1mb 40f 44f
Wed 04/29 11:04pm 1ft 8s 11
mph
1007.7mb 42f 44f
10:04pm 0.7ft  -  9 11 mph 1007.4mb 40f 45f
9:04pm 1ft 11s 7
mph
1007.1mb 41f 44f
8:04pm 0.7ft  -   -  2 mph 1006.4mb 41f 45f
7:04pm 0.7ft  -  4 7 mph 1005.6mb 41f 44f
6:04pm 0.7ft  -  9
mph
1005mb 41f 43f